sensor_id;sensor_type;location;lat;lon;timestamp;P1;durP1;ratioP1;P2;durP2;ratioP2
17850;SDS011;9051;51.548;14.348;2023-04-07T00:01:03;7.13;;;5.87;;
17850;SDS011;9051;51.548;14.348;2023-04-07T00:03:35;9.60;;;6.63;;
17850;SDS011;9051;51.548;14.348;2023-04-07T00:06:09;8.37;;;5.97;;
17850;SDS011;9051;51.548;14.348;2023-04-07T00:08:42;8.40;;;6.37;;
17850;SDS011;9051;51.548;14.348;2023-04-07T00:11:15;8.93;;;6.50;;
17850;SDS011;9051;51.548;14.348;2023-04-07T00:13:47;8.27;;;6.07;;
17850;SDS011;9051;51.548;14.348;2023-04-07T00:16:19;9.03;;;6.27;;
17850;SDS011;9051;51.548;14.348;2023-04-07T00:18:50;7.53;;;6.00;;
17850;SDS011;9051;51.548;14.348;2023-04-07T00:21:22;7.53;;;5.83;;
17850;SDS011;9051;51.548;14.348;2023-04-07T00:23:56;7.90;;;5.60;;
17850;SDS011;9051;51.548;14.348;2023-04-07T00:26:29;13.43;;;6.90;;
17850;SDS011;9051;51.548;14.348;2023-04-07T00:29:02;7.43;;;6.07;;
17850;SDS011;9051;51.548;14.348;2023-04-07T00:31:34;8.17;;;5.97;;
17850;SDS011;9051;51.548;14.348;2023-04-07T00:34:06;7.23;;;6.00;;
17850;SDS011;9051;51.548;14.348;2023-04-07T00:36:38;8.63;;;6.30;;
17850;SDS011;9051;51.548;14.348;2023-04-07T00:39:10;7.83;;;6.27;;
17850;SDS011;9051;51.548;14.348;2023-04-07T00:41:43;8.97;;;6.20;;
17850;SDS011;9051;51.548;14.348;2023-04-07T00:44:15;9.50;;;6.30;;
17850;SDS011;9051;51.548;14.348;2023-04-07T00:46:47;7.47;;;6.50;;
17850;SDS011;9051;51.548;14.348;2023-04-07T00:49:19;8.20;;;6.23;;
17850;SDS011;9051;51.548;14.348;2023-04-07T00:51:51;9.10;;;6.10;;
17850;SDS011;9051;51.548;14.348;2023-04-07T00:54:24;10.00;;;6.60;;
17850;SDS011;9051;51.548;14.348;2023-04-07T00:56:57;8.77;;;7.10;;
17850;SDS011;9051;51.548;14.348;2023-04-07T00:59:30;10.33;;;6.60;;
17850;SDS011;9051;51.548;14.348;2023-04-07T01:02:04;9.40;;;6.67;;
17850;SDS011;9051;51.548;14.348;2023-04-07T01:04:42;7.63;;;5.80;;
17850;SDS011;9051;51.548;14.348;2023-04-07T01:07:22;9.93;;;6.90;;
17850;SDS011;9051;51.548;14.348;2023-04-07T01:10:08;8.60;;;6.50;;
17850;SDS011;9051;51.548;14.348;2023-04-07T01:13:00;8.17;;;6.33;;
17850;SDS011;9051;51.548;14.348;2023-04-07T01:15:36;8.90;;;6.30;;
17850;SDS011;9051;51.548;14.348;2023-04-07T01:18:14;11.03;;;7.17;;
17850;SDS011;9051;51.548;14.348;2023-04-07T01:20:51;9.57;;;6.77;;
17850;SDS011;9051;51.548;14.348;2023-04-07T01:23:38;9.73;;;7.03;;
17850;SDS011;9051;51.548;14.348;2023-04-07T01:26:23;8.50;;;6.13;;
17850;SDS011;9051;51.548;14.348;2023-04-07T01:32:03;8.73;;;6.83;;
17850;SDS011;9051;51.548;14.348;2023-04-07T01:34:37;7.70;;;6.00;;
17850;SDS011;9051;51.548;14.348;2023-04-07T01:37:11;8.27;;;6.60;;
17850;SDS011;9051;51.548;14.348;2023-04-07T01:39:44;11.53;;;7.10;;
17850;SDS011;9051;51.548;14.348;2023-04-07T01:42:17;11.83;;;7.10;;
17850;SDS011;9051;51.548;14.348;2023-04-07T01:44:51;9.57;;;7.00;;
17850;SDS011;9051;51.548;14.348;2023-04-07T01:47:24;9.17;;;6.53;;
17850;SDS011;9051;51.548;14.348;2023-04-07T01:49:59;8.73;;;6.40;;
17850;SDS011;9051;51.548;14.348;2023-04-07T01:52:34;9.03;;;7.00;;
17850;SDS011;9051;51.548;14.348;2023-04-07T01:55:06;10.37;;;6.20;;
17850;SDS011;9051;51.548;14.348;2023-04-07T01:57:43;8.27;;;6.37;;
17850;SDS011;9051;51.548;14.348;2023-04-07T02:00:21;9.83;;;6.70;;
17850;SDS011;9051;51.548;14.348;2023-04-07T02:02:57;10.40;;;7.00;;
17850;SDS011;9051;51.548;14.348;2023-04-07T02:05:35;7.97;;;6.70;;
17850;SDS011;9051;51.548;14.348;2023-04-07T02:08:12;8.23;;;6.30;;
17850;SDS011;9051;51.548;14.348;2023-04-07T02:10:48;9.37;;;6.83;;
17850;SDS011;9051;51.548;14.348;2023-04-07T02:13:21;12.30;;;6.70;;
17850;SDS011;9051;51.548;14.348;2023-04-07T02:15:57;8.07;;;6.17;;
17850;SDS011;9051;51.548;14.348;2023-04-07T02:18:30;8.70;;;6.00;;
17850;SDS011;9051;51.548;14.348;2023-04-07T02:21:03;8.20;;;6.77;;
17850;SDS011;9051;51.548;14.348;2023-04-07T02:23:36;8.10;;;6.27;;
17850;SDS011;9051;51.548;14.348;2023-04-07T02:26:08;8.83;;;6.63;;
17850;SDS011;9051;51.548;14.348;2023-04-07T02:28:40;8.80;;;6.43;;
17850;SDS011;9051;51.548;14.348;2023-04-07T02:31:14;8.33;;;6.57;;
17850;SDS011;9051;51.548;14.348;2023-04-07T02:33:46;8.77;;;6.80;;
17850;SDS011;9051;51.548;14.348;2023-04-07T02:36:18;7.53;;;6.20;;
17850;SDS011;9051;51.548;14.348;2023-04-07T02:38:50;8.13;;;6.60;;
17850;SDS011;9051;51.548;14.348;2023-04-07T02:41:22;10.70;;;6.77;;
17850;SDS011;9051;51.548;14.348;2023-04-07T02:43:54;8.00;;;6.33;;
17850;SDS011;9051;51.548;14.348;2023-04-07T02:46:27;8.47;;;6.00;;
17850;SDS011;9051;51.548;14.348;2023-04-07T02:49:00;8.40;;;6.50;;
17850;SDS011;9051;51.548;14.348;2023-04-07T02:51:32;8.33;;;6.33;;
17850;SDS011;9051;51.548;14.348;2023-04-07T02:54:04;9.00;;;6.83;;
17850;SDS011;9051;51.548;14.348;2023-04-07T02:56:36;8.57;;;6.40;;
17850;SDS011;9051;51.548;14.348;2023-04-07T02:59:08;8.13;;;6.13;;
17850;SDS011;9051;51.548;14.348;2023-04-07T03:01:45;8.87;;;6.50;;
17850;SDS011;9051;51.548;14.348;2023-04-07T03:04:18;7.17;;;5.97;;
17850;SDS011;9051;51.548;14.348;2023-04-07T03:06:50;7.27;;;6.37;;
17850;SDS011;9051;51.548;14.348;2023-04-07T03:09:21;7.73;;;6.37;;
17850;SDS011;9051;51.548;14.348;2023-04-07T03:11:54;7.80;;;6.17;;
17850;SDS011;9051;51.548;14.348;2023-04-07T03:14:26;7.57;;;5.90;;
17850;SDS011;9051;51.548;14.348;2023-04-07T03:16:59;8.87;;;6.50;;
17850;SDS011;9051;51.548;14.348;2023-04-07T03:19:31;8.63;;;6.50;;
17850;SDS011;9051;51.548;14.348;2023-04-07T03:22:03;9.63;;;6.83;;
17850;SDS011;9051;51.548;14.348;2023-04-07T03:24:39;10.73;;;6.70;;
17850;SDS011;9051;51.548;14.348;2023-04-07T03:27:10;7.60;;;6.63;;
17850;SDS011;9051;51.548;14.348;2023-04-07T03:29:47;7.83;;;6.27;;
17850;SDS011;9051;51.548;14.348;2023-04-07T03:32:22;9.13;;;6.53;;
17850;SDS011;9051;51.548;14.348;2023-04-07T03:34:54;7.40;;;6.30;;
17850;SDS011;9051;51.548;14.348;2023-04-07T03:37:26;7.83;;;6.50;;
17850;SDS011;9051;51.548;14.348;2023-04-07T03:39:58;10.37;;;6.27;;
17850;SDS011;9051;51.548;14.348;2023-04-07T03:42:36;8.53;;;6.23;;
17850;SDS011;9051;51.548;14.348;2023-04-07T03:45:10;8.67;;;6.63;;
17850;SDS011;9051;51.548;14.348;2023-04-07T03:47:48;10.27;;;6.97;;
17850;SDS011;9051;51.548;14.348;2023-04-07T03:50:21;8.97;;;6.73;;
17850;SDS011;9051;51.548;14.348;2023-04-07T03:53:05;9.40;;;6.77;;
17850;SDS011;9051;51.548;14.348;2023-04-07T03:55:38;8.77;;;6.57;;
17850;SDS011;9051;51.548;14.348;2023-04-07T03:58:18;7.73;;;6.07;;
17850;SDS011;9051;51.548;14.348;2023-04-07T04:00:51;6.77;;;5.83;;
17850;SDS011;9051;51.548;14.348;2023-04-07T04:03:25;8.63;;;6.83;;
17850;SDS011;9051;51.548;14.348;2023-04-07T04:06:12;8.47;;;6.83;;
17850;SDS011;9051;51.548;14.348;2023-04-07T04:08:44;8.33;;;6.70;;
17850;SDS011;9051;51.548;14.348;2023-04-07T04:11:17;7.20;;;5.73;;
17850;SDS011;9051;51.548;14.348;2023-04-07T04:13:58;9.20;;;6.00;;
17850;SDS011;9051;51.548;14.348;2023-04-07T04:16:30;8.37;;;6.93;;
17850;SDS011;9051;51.548;14.348;2023-04-07T04:19:08;7.30;;;5.90;;
17850;SDS011;9051;51.548;14.348;2023-04-07T04:21:40;8.53;;;5.83;;
17850;SDS011;9051;51.548;14.348;2023-04-07T04:24:13;6.90;;;5.87;;
17850;SDS011;9051;51.548;14.348;2023-04-07T04:26:47;7.57;;;5.97;;
17850;SDS011;9051;51.548;14.348;2023-04-07T04:29:19;8.87;;;6.43;;
17850;SDS011;9051;51.548;14.348;2023-04-07T04:31:50;7.53;;;6.00;;
17850;SDS011;9051;51.548;14.348;2023-04-07T04:34:25;9.13;;;6.10;;
17850;SDS011;9051;51.548;14.348;2023-04-07T04:36:58;8.37;;;6.33;;
17850;SDS011;9051;51.548;14.348;2023-04-07T04:39:30;7.80;;;6.67;;
17850;SDS011;9051;51.548;14.348;2023-04-07T04:42:04;9.27;;;7.20;;
17850;SDS011;9051;51.548;14.348;2023-04-07T04:44:39;8.83;;;6.60;;
17850;SDS011;9051;51.548;14.348;2023-04-07T04:47:12;8.83;;;7.23;;
17850;SDS011;9051;51.548;14.348;2023-04-07T04:49:45;10.67;;;7.70;;
17850;SDS011;9051;51.548;14.348;2023-04-07T04:52:17;9.10;;;7.13;;
17850;SDS011;9051;51.548;14.348;2023-04-07T04:54:52;11.37;;;7.50;;
17850;SDS011;9051;51.548;14.348;2023-04-07T04:57:24;8.80;;;7.30;;
17850;SDS011;9051;51.548;14.348;2023-04-07T04:59:56;10.37;;;7.33;;
17850;SDS011;9051;51.548;14.348;2023-04-07T05:02:29;10.63;;;8.20;;
17850;SDS011;9051;51.548;14.348;2023-04-07T05:05:03;10.77;;;8.03;;
17850;SDS011;9051;51.548;14.348;2023-04-07T05:07:36;12.80;;;7.80;;
17850;SDS011;9051;51.548;14.348;2023-04-07T05:10:10;11.90;;;7.50;;
17850;SDS011;9051;51.548;14.348;2023-04-07T05:12:49;10.33;;;7.63;;
17850;SDS011;9051;51.548;14.348;2023-04-07T05:15:21;9.17;;;7.40;;
17850;SDS011;9051;51.548;14.348;2023-04-07T05:17:54;11.17;;;7.53;;
17850;SDS011;9051;51.548;14.348;2023-04-07T05:20:31;11.07;;;7.70;;
17850;SDS011;9051;51.548;14.348;2023-04-07T05:23:03;10.57;;;7.30;;
17850;SDS011;9051;51.548;14.348;2023-04-07T05:25:37;9.77;;;7.30;;
17850;SDS011;9051;51.548;14.348;2023-04-07T05:28:10;10.30;;;8.07;;
17850;SDS011;9051;51.548;14.348;2023-04-07T05:30:42;11.80;;;8.00;;
17850;SDS011;9051;51.548;14.348;2023-04-07T05:33:14;8.53;;;7.63;;
17850;SDS011;9051;51.548;14.348;2023-04-07T05:35:51;9.37;;;7.17;;
17850;SDS011;9051;51.548;14.348;2023-04-07T05:38:23;10.63;;;7.43;;
17850;SDS011;9051;51.548;14.348;2023-04-07T05:40:59;12.63;;;9.33;;
17850;SDS011;9051;51.548;14.348;2023-04-07T05:43:36;13.13;;;9.40;;
17850;SDS011;9051;51.548;14.348;2023-04-07T05:46:09;14.70;;;10.63;;
17850;SDS011;9051;51.548;14.348;2023-04-07T05:48:50;12.60;;;9.70;;
17850;SDS011;9051;51.548;14.348;2023-04-07T05:51:25;13.90;;;10.23;;
17850;SDS011;9051;51.548;14.348;2023-04-07T05:54:00;13.57;;;10.30;;
17850;SDS011;9051;51.548;14.348;2023-04-07T05:56:33;15.90;;;11.17;;
17850;SDS011;9051;51.548;14.348;2023-04-07T05:59:05;16.43;;;11.63;;
17850;SDS011;9051;51.548;14.348;2023-04-07T06:01:37;16.90;;;12.37;;
17850;SDS011;9051;51.548;14.348;2023-04-07T06:04:09;18.37;;;12.47;;
17850;SDS011;9051;51.548;14.348;2023-04-07T06:06:43;18.10;;;12.67;;
17850;SDS011;9051;51.548;14.348;2023-04-07T06:09:15;18.43;;;13.30;;
17850;SDS011;9051;51.548;14.348;2023-04-07T06:11:47;18.87;;;13.40;;
17850;SDS011;9051;51.548;14.348;2023-04-07T06:14:19;17.97;;;13.47;;
17850;SDS011;9051;51.548;14.348;2023-04-07T06:16:51;17.40;;;12.87;;
17850;SDS011;9051;51.548;14.348;2023-04-07T06:19:23;18.77;;;12.57;;
17850;SDS011;9051;51.548;14.348;2023-04-07T06:21:58;19.87;;;13.13;;
17850;SDS011;9051;51.548;14.348;2023-04-07T06:24:30;16.23;;;12.13;;
17850;SDS011;9051;51.548;14.348;2023-04-07T06:27:02;17.73;;;13.00;;
17850;SDS011;9051;51.548;14.348;2023-04-07T06:29:34;19.10;;;13.67;;
17850;SDS011;9051;51.548;14.348;2023-04-07T06:32:09;21.03;;;14.73;;
17850;SDS011;9051;51.548;14.348;2023-04-07T06:34:41;18.27;;;13.80;;
17850;SDS011;9051;51.548;14.348;2023-04-07T06:37:14;18.60;;;13.93;;
17850;SDS011;9051;51.548;14.348;2023-04-07T06:39:47;20.33;;;13.63;;
17850;SDS011;9051;51.548;14.348;2023-04-07T06:42:19;21.43;;;14.97;;
17850;SDS011;9051;51.548;14.348;2023-04-07T06:45:06;19.87;;;14.00;;
17850;SDS011;9051;51.548;14.348;2023-04-07T06:47:39;16.17;;;12.50;;
17850;SDS011;9051;51.548;14.348;2023-04-07T06:50:10;18.47;;;13.43;;
17850;SDS011;9051;51.548;14.348;2023-04-07T06:52:44;16.47;;;12.87;;
17850;SDS011;9051;51.548;14.348;2023-04-07T06:55:15;16.80;;;12.23;;
17850;SDS011;9051;51.548;14.348;2023-04-07T06:57:47;18.33;;;13.60;;
17850;SDS011;9051;51.548;14.348;2023-04-07T07:00:21;19.17;;;12.83;;
17850;SDS011;9051;51.548;14.348;2023-04-07T07:02:53;18.03;;;13.17;;
17850;SDS011;9051;51.548;14.348;2023-04-07T07:05:26;19.77;;;13.30;;
17850;SDS011;9051;51.548;14.348;2023-04-07T07:08:00;20.97;;;13.43;;
17850;SDS011;9051;51.548;14.348;2023-04-07T07:10:32;18.90;;;14.07;;
17850;SDS011;9051;51.548;14.348;2023-04-07T07:13:04;19.20;;;13.20;;
17850;SDS011;9051;51.548;14.348;2023-04-07T07:15:36;19.07;;;13.43;;
17850;SDS011;9051;51.548;14.348;2023-04-07T07:18:08;16.17;;;12.30;;
17850;SDS011;9051;51.548;14.348;2023-04-07T07:20:40;17.63;;;12.70;;
17850;SDS011;9051;51.548;14.348;2023-04-07T07:23:13;14.73;;;12.20;;
17850;SDS011;9051;51.548;14.348;2023-04-07T07:25:45;15.43;;;11.50;;
17850;SDS011;9051;51.548;14.348;2023-04-07T07:28:17;17.67;;;11.87;;
17850;SDS011;9051;51.548;14.348;2023-04-07T07:30:50;16.50;;;11.47;;
17850;SDS011;9051;51.548;14.348;2023-04-07T07:33:22;16.50;;;11.40;;
17850;SDS011;9051;51.548;14.348;2023-04-07T07:35:54;14.40;;;10.90;;
17850;SDS011;9051;51.548;14.348;2023-04-07T07:38:27;17.33;;;10.90;;
17850;SDS011;9051;51.548;14.348;2023-04-07T07:40:59;14.53;;;9.93;;
17850;SDS011;9051;51.548;14.348;2023-04-07T07:43:31;14.93;;;10.30;;
17850;SDS011;9051;51.548;14.348;2023-04-07T07:46:03;14.23;;;10.03;;
17850;SDS011;9051;51.548;14.348;2023-04-07T07:48:35;13.83;;;10.43;;
17850;SDS011;9051;51.548;14.348;2023-04-07T07:51:07;13.73;;;9.70;;
17850;SDS011;9051;51.548;14.348;2023-04-07T07:53:40;14.97;;;10.40;;
17850;SDS011;9051;51.548;14.348;2023-04-07T07:56:15;14.13;;;8.93;;
17850;SDS011;9051;51.548;14.348;2023-04-07T07:58:47;13.57;;;9.73;;
17850;SDS011;9051;51.548;14.348;2023-04-07T08:01:19;13.60;;;9.53;;
17850;SDS011;9051;51.548;14.348;2023-04-07T08:03:51;13.60;;;9.30;;
17850;SDS011;9051;51.548;14.348;2023-04-07T08:06:23;11.63;;;9.17;;
17850;SDS011;9051;51.548;14.348;2023-04-07T08:08:57;11.63;;;8.57;;
17850;SDS011;9051;51.548;14.348;2023-04-07T08:11:29;10.90;;;8.60;;
17850;SDS011;9051;51.548;14.348;2023-04-07T08:14:01;13.40;;;8.67;;
17850;SDS011;9051;51.548;14.348;2023-04-07T08:16:33;11.70;;;8.40;;
17850;SDS011;9051;51.548;14.348;2023-04-07T08:19:05;13.90;;;9.40;;
17850;SDS011;9051;51.548;14.348;2023-04-07T08:21:37;11.43;;;8.77;;
17850;SDS011;9051;51.548;14.348;2023-04-07T08:24:10;11.77;;;9.03;;
17850;SDS011;9051;51.548;14.348;2023-04-07T08:26:42;11.83;;;8.47;;
17850;SDS011;9051;51.548;14.348;2023-04-07T08:29:15;13.70;;;9.33;;
17850;SDS011;9051;51.548;14.348;2023-04-07T08:31:47;14.73;;;9.33;;
17850;SDS011;9051;51.548;14.348;2023-04-07T08:34:18;10.43;;;8.40;;
17850;SDS011;9051;51.548;14.348;2023-04-07T08:36:50;12.17;;;8.73;;
17850;SDS011;9051;51.548;14.348;2023-04-07T08:39:24;12.43;;;8.07;;
17850;SDS011;9051;51.548;14.348;2023-04-07T08:41:55;13.77;;;8.50;;
17850;SDS011;9051;51.548;14.348;2023-04-07T08:44:28;11.97;;;8.57;;
17850;SDS011;9051;51.548;14.348;2023-04-07T08:47:01;11.60;;;8.93;;
17850;SDS011;9051;51.548;14.348;2023-04-07T08:49:36;10.13;;;8.17;;
17850;SDS011;9051;51.548;14.348;2023-04-07T08:52:11;12.40;;;8.73;;
17850;SDS011;9051;51.548;14.348;2023-04-07T08:54:47;12.50;;;8.60;;
17850;SDS011;9051;51.548;14.348;2023-04-07T08:57:19;10.90;;;7.87;;
17850;SDS011;9051;51.548;14.348;2023-04-07T08:59:51;13.70;;;8.47;;
17850;SDS011;9051;51.548;14.348;2023-04-07T09:02:24;13.83;;;8.97;;
17850;SDS011;9051;51.548;14.348;2023-04-07T09:04:55;13.27;;;8.23;;
17850;SDS011;9051;51.548;14.348;2023-04-07T09:07:28;10.23;;;7.83;;
17850;SDS011;9051;51.548;14.348;2023-04-07T09:10:02;12.67;;;8.27;;
17850;SDS011;9051;51.548;14.348;2023-04-07T09:12:35;11.73;;;8.10;;
17850;SDS011;9051;51.548;14.348;2023-04-07T09:15:07;11.43;;;9.10;;
17850;SDS011;9051;51.548;14.348;2023-04-07T09:17:39;12.73;;;9.33;;
17850;SDS011;9051;51.548;14.348;2023-04-07T09:20:12;14.57;;;10.10;;
17850;SDS011;9051;51.548;14.348;2023-04-07T09:22:43;15.83;;;10.30;;
17850;SDS011;9051;51.548;14.348;2023-04-07T09:25:17;14.23;;;9.70;;
17850;SDS011;9051;51.548;14.348;2023-04-07T09:27:55;17.43;;;9.67;;
17850;SDS011;9051;51.548;14.348;2023-04-07T09:30:29;18.00;;;10.00;;
17850;SDS011;9051;51.548;14.348;2023-04-07T09:33:02;15.87;;;9.90;;
17850;SDS011;9051;51.548;14.348;2023-04-07T09:35:37;18.07;;;9.67;;
17850;SDS011;9051;51.548;14.348;2023-04-07T09:38:22;17.67;;;10.10;;
17850;SDS011;9051;51.548;14.348;2023-04-07T09:41:05;14.30;;;9.43;;
17850;SDS011;9051;51.548;14.348;2023-04-07T09:43:39;15.70;;;9.77;;
17850;SDS011;9051;51.548;14.348;2023-04-07T09:46:14;12.47;;;9.07;;
17850;SDS011;9051;51.548;14.348;2023-04-07T09:48:47;12.93;;;9.20;;
17850;SDS011;9051;51.548;14.348;2023-04-07T09:51:34;11.13;;;9.03;;
17850;SDS011;9051;51.548;14.348;2023-04-07T09:54:06;12.07;;;8.87;;
17850;SDS011;9051;51.548;14.348;2023-04-07T09:56:39;13.53;;;10.10;;
17850;SDS011;9051;51.548;14.348;2023-04-07T09:59:11;12.57;;;9.17;;
17850;SDS011;9051;51.548;14.348;2023-04-07T10:01:45;15.00;;;10.83;;
17850;SDS011;9051;51.548;14.348;2023-04-07T10:04:17;13.80;;;10.47;;
17850;SDS011;9051;51.548;14.348;2023-04-07T10:06:50;13.47;;;9.70;;
17850;SDS011;9051;51.548;14.348;2023-04-07T10:09:23;11.40;;;8.90;;
17850;SDS011;9051;51.548;14.348;2023-04-07T10:11:58;12.03;;;7.90;;
17850;SDS011;9051;51.548;14.348;2023-04-07T10:14:30;11.03;;;8.63;;
17850;SDS011;9051;51.548;14.348;2023-04-07T10:17:02;11.27;;;8.67;;
17850;SDS011;9051;51.548;14.348;2023-04-07T10:19:34;11.97;;;8.77;;
17850;SDS011;9051;51.548;14.348;2023-04-07T10:22:07;13.43;;;8.80;;
17850;SDS011;9051;51.548;14.348;2023-04-07T10:24:43;10.97;;;8.43;;
17850;SDS011;9051;51.548;14.348;2023-04-07T10:27:33;11.20;;;8.03;;
17850;SDS011;9051;51.548;14.348;2023-04-07T10:30:11;10.77;;;7.40;;
17850;SDS011;9051;51.548;14.348;2023-04-07T10:32:45;11.67;;;7.83;;
17850;SDS011;9051;51.548;14.348;2023-04-07T10:35:18;11.53;;;7.87;;
17850;SDS011;9051;51.548;14.348;2023-04-07T10:38:10;8.67;;;7.20;;
17850;SDS011;9051;51.548;14.348;2023-04-07T10:40:44;9.87;;;7.53;;
17850;SDS011;9051;51.548;14.348;2023-04-07T10:43:35;9.53;;;7.43;;
17850;SDS011;9051;51.548;14.348;2023-04-07T10:46:08;10.73;;;7.93;;
17850;SDS011;9051;51.548;14.348;2023-04-07T10:48:40;9.60;;;7.67;;
17850;SDS011;9051;51.548;14.348;2023-04-07T10:51:16;10.90;;;8.03;;
17850;SDS011;9051;51.548;14.348;2023-04-07T10:57:05;11.07;;;8.40;;
17850;SDS011;9051;51.548;14.348;2023-04-07T10:59:41;10.10;;;8.13;;
17850;SDS011;9051;51.548;14.348;2023-04-07T11:02:46;12.53;;;8.73;;
17850;SDS011;9051;51.548;14.348;2023-04-07T11:05:19;10.70;;;8.87;;
17850;SDS011;9051;51.548;14.348;2023-04-07T11:07:52;11.97;;;9.07;;
17850;SDS011;9051;51.548;14.348;2023-04-07T11:10:26;12.93;;;10.07;;
17850;SDS011;9051;51.548;14.348;2023-04-07T11:13:02;11.53;;;9.50;;
17850;SDS011;9051;51.548;14.348;2023-04-07T11:15:37;12.73;;;9.50;;
17850;SDS011;9051;51.548;14.348;2023-04-07T11:18:10;10.73;;;8.87;;
17850;SDS011;9051;51.548;14.348;2023-04-07T11:20:45;10.93;;;8.87;;
17850;SDS011;9051;51.548;14.348;2023-04-07T11:23:18;11.97;;;8.77;;
17850;SDS011;9051;51.548;14.348;2023-04-07T11:25:52;11.33;;;8.47;;
17850;SDS011;9051;51.548;14.348;2023-04-07T11:28:30;11.93;;;8.50;;
17850;SDS011;9051;51.548;14.348;2023-04-07T11:31:04;13.50;;;9.03;;
17850;SDS011;9051;51.548;14.348;2023-04-07T11:33:36;10.77;;;8.63;;
17850;SDS011;9051;51.548;14.348;2023-04-07T11:36:09;10.23;;;8.17;;
17850;SDS011;9051;51.548;14.348;2023-04-07T11:38:41;11.73;;;8.80;;
17850;SDS011;9051;51.548;14.348;2023-04-07T11:41:15;11.60;;;8.93;;
17850;SDS011;9051;51.548;14.348;2023-04-07T11:47:16;13.10;;;9.40;;
17850;SDS011;9051;51.548;14.348;2023-04-07T11:50:06;13.17;;;10.00;;
17850;SDS011;9051;51.548;14.348;2023-04-07T11:52:44;12.53;;;9.43;;
17850;SDS011;9051;51.548;14.348;2023-04-07T11:55:34;15.70;;;9.87;;
17850;SDS011;9051;51.548;14.348;2023-04-07T11:58:25;14.03;;;9.40;;
17850;SDS011;9051;51.548;14.348;2023-04-07T12:01:11;13.47;;;9.67;;
17850;SDS011;9051;51.548;14.348;2023-04-07T12:03:55;17.23;;;9.97;;
17850;SDS011;9051;51.548;14.348;2023-04-07T12:06:33;13.87;;;9.53;;
17850;SDS011;9051;51.548;14.348;2023-04-07T12:09:27;13.17;;;9.27;;
17850;SDS011;9051;51.548;14.348;2023-04-07T12:12:09;11.67;;;8.13;;
17850;SDS011;9051;51.548;14.348;2023-04-07T12:14:40;15.13;;;9.73;;
17850;SDS011;9051;51.548;14.348;2023-04-07T12:17:18;17.27;;;12.40;;
17850;SDS011;9051;51.548;14.348;2023-04-07T12:19:52;13.53;;;9.57;;
17850;SDS011;9051;51.548;14.348;2023-04-07T12:22:28;15.00;;;12.07;;
17850;SDS011;9051;51.548;14.348;2023-04-07T12:25:03;18.27;;;13.40;;
17850;SDS011;9051;51.548;14.348;2023-04-07T12:27:53;28.37;;;25.27;;
17850;SDS011;9051;51.548;14.348;2023-04-07T12:31:01;16.97;;;11.83;;
17850;SDS011;9051;51.548;14.348;2023-04-07T12:33:50;20.93;;;14.17;;
17850;SDS011;9051;51.548;14.348;2023-04-07T12:36:40;15.93;;;10.70;;
17850;SDS011;9051;51.548;14.348;2023-04-07T12:39:24;14.43;;;10.63;;
17850;SDS011;9051;51.548;14.348;2023-04-07T12:42:02;15.83;;;10.67;;
17850;SDS011;9051;51.548;14.348;2023-04-07T12:44:37;14.00;;;11.07;;
17850;SDS011;9051;51.548;14.348;2023-04-07T12:47:09;13.60;;;10.80;;
17850;SDS011;9051;51.548;14.348;2023-04-07T12:49:44;16.97;;;11.57;;
17850;SDS011;9051;51.548;14.348;2023-04-07T12:52:30;13.77;;;10.23;;
17850;SDS011;9051;51.548;14.348;2023-04-07T12:55:13;15.43;;;11.60;;
17850;SDS011;9051;51.548;14.348;2023-04-07T12:57:56;13.33;;;10.77;;
17850;SDS011;9051;51.548;14.348;2023-04-07T13:00:30;13.47;;;10.93;;
17850;SDS011;9051;51.548;14.348;2023-04-07T13:09:42;16.37;;;12.13;;
17850;SDS011;9051;51.548;14.348;2023-04-07T13:12:21;15.20;;;11.17;;
17850;SDS011;9051;51.548;14.348;2023-04-07T13:14:57;15.57;;;12.17;;
17850;SDS011;9051;51.548;14.348;2023-04-07T13:17:58;16.07;;;13.20;;
17850;SDS011;9051;51.548;14.348;2023-04-07T13:20:30;19.10;;;14.57;;
17850;SDS011;9051;51.548;14.348;2023-04-07T13:23:02;17.93;;;13.80;;
17850;SDS011;9051;51.548;14.348;2023-04-07T13:25:36;18.97;;;12.47;;
17850;SDS011;9051;51.548;14.348;2023-04-07T13:28:07;17.73;;;13.03;;
17850;SDS011;9051;51.548;14.348;2023-04-07T13:30:39;19.43;;;14.63;;
17850;SDS011;9051;51.548;14.348;2023-04-07T13:33:11;17.63;;;13.47;;
17850;SDS011;9051;51.548;14.348;2023-04-07T13:35:43;17.97;;;13.87;;
17850;SDS011;9051;51.548;14.348;2023-04-07T13:38:15;18.53;;;13.73;;
17850;SDS011;9051;51.548;14.348;2023-04-07T13:40:48;19.70;;;14.00;;
17850;SDS011;9051;51.548;14.348;2023-04-07T13:43:20;18.10;;;13.57;;
17850;SDS011;9051;51.548;14.348;2023-04-07T13:45:52;18.47;;;13.07;;
17850;SDS011;9051;51.548;14.348;2023-04-07T13:48:25;16.20;;;12.30;;
17850;SDS011;9051;51.548;14.348;2023-04-07T13:50:57;18.97;;;12.97;;
17850;SDS011;9051;51.548;14.348;2023-04-07T13:53:29;19.67;;;12.70;;
17850;SDS011;9051;51.548;14.348;2023-04-07T13:56:02;15.97;;;12.27;;
17850;SDS011;9051;51.548;14.348;2023-04-07T13:58:37;18.10;;;12.50;;
17850;SDS011;9051;51.548;14.348;2023-04-07T14:01:09;17.77;;;13.17;;
17850;SDS011;9051;51.548;14.348;2023-04-07T14:03:41;14.93;;;11.67;;
17850;SDS011;9051;51.548;14.348;2023-04-07T14:06:12;17.53;;;12.10;;
17850;SDS011;9051;51.548;14.348;2023-04-07T14:08:45;16.43;;;12.00;;
17850;SDS011;9051;51.548;14.348;2023-04-07T14:11:18;15.93;;;11.23;;
17850;SDS011;9051;51.548;14.348;2023-04-07T14:13:51;15.10;;;10.70;;
17850;SDS011;9051;51.548;14.348;2023-04-07T14:16:23;13.73;;;10.97;;
17850;SDS011;9051;51.548;14.348;2023-04-07T14:18:55;15.83;;;10.80;;
17850;SDS011;9051;51.548;14.348;2023-04-07T14:21:27;15.33;;;11.10;;
17850;SDS011;9051;51.548;14.348;2023-04-07T14:24:00;16.23;;;11.60;;
17850;SDS011;9051;51.548;14.348;2023-04-07T14:26:33;17.90;;;11.90;;
17850;SDS011;9051;51.548;14.348;2023-04-07T14:29:05;15.93;;;10.77;;
17850;SDS011;9051;51.548;14.348;2023-04-07T14:31:37;16.90;;;11.30;;
17850;SDS011;9051;51.548;14.348;2023-04-07T14:34:09;14.87;;;11.53;;
17850;SDS011;9051;51.548;14.348;2023-04-07T14:36:41;12.93;;;10.50;;
17850;SDS011;9051;51.548;14.348;2023-04-07T14:39:22;15.70;;;10.83;;
17850;SDS011;9051;51.548;14.348;2023-04-07T14:41:55;15.60;;;10.70;;
17850;SDS011;9051;51.548;14.348;2023-04-07T14:44:27;19.10;;;11.13;;
17850;SDS011;9051;51.548;14.348;2023-04-07T14:47:00;14.23;;;9.63;;
17850;SDS011;9051;51.548;14.348;2023-04-07T14:49:32;14.13;;;9.77;;
17850;SDS011;9051;51.548;14.348;2023-04-07T14:52:04;14.53;;;9.13;;
17850;SDS011;9051;51.548;14.348;2023-04-07T14:54:36;13.20;;;9.27;;
17850;SDS011;9051;51.548;14.348;2023-04-07T14:57:09;12.43;;;9.43;;
17850;SDS011;9051;51.548;14.348;2023-04-07T14:59:41;12.87;;;8.30;;
17850;SDS011;9051;51.548;14.348;2023-04-07T15:02:13;14.93;;;8.63;;
17850;SDS011;9051;51.548;14.348;2023-04-07T15:04:45;10.17;;;7.03;;
17850;SDS011;9051;51.548;14.348;2023-04-07T15:07:16;8.87;;;6.37;;
17850;SDS011;9051;51.548;14.348;2023-04-07T15:09:48;7.77;;;6.23;;
17850;SDS011;9051;51.548;14.348;2023-04-07T15:12:21;14.93;;;9.63;;
17850;SDS011;9051;51.548;14.348;2023-04-07T15:14:53;9.23;;;6.57;;
17850;SDS011;9051;51.548;14.348;2023-04-07T15:17:25;8.07;;;5.93;;
17850;SDS011;9051;51.548;14.348;2023-04-07T15:19:57;12.10;;;8.27;;
17850;SDS011;9051;51.548;14.348;2023-04-07T15:22:29;11.33;;;7.70;;
17850;SDS011;9051;51.548;14.348;2023-04-07T15:25:01;11.93;;;7.50;;
17850;SDS011;9051;51.548;14.348;2023-04-07T15:27:34;12.07;;;7.97;;
17850;SDS011;9051;51.548;14.348;2023-04-07T15:30:06;8.40;;;6.27;;
17850;SDS011;9051;51.548;14.348;2023-04-07T15:32:39;11.17;;;7.40;;
17850;SDS011;9051;51.548;14.348;2023-04-07T15:35:10;8.63;;;6.07;;